createdAt,value
2019-03-01T00:01:11.556Z,25.30
2019-03-01T00:03:45.030Z,25.30
2019-03-01T00:06:20.283Z,25.20
2019-03-01T00:09:18.340Z,25.20
2019-03-01T00:12:18.892Z,25.10
2019-03-01T00:15:10.456Z,25.10
2019-03-01T00:17:54.181Z,25.10
2019-03-01T00:20:52.300Z,25.20
2019-03-01T00:23:39.321Z,25.30
2019-03-01T00:26:23.408Z,25.30
2019-03-01T00:29:26.327Z,25.40
2019-03-01T00:32:15.109Z,25.50
2019-03-01T00:35:06.718Z,25.50
2019-03-01T00:37:50.282Z,25.50
2019-03-01T00:40:27.944Z,25.60
2019-03-01T00:43:09.367Z,25.70
2019-03-01T00:45:42.340Z,25.80
2019-03-01T00:48:15.608Z,26.00
2019-03-01T00:50:48.572Z,26.30
2019-03-01T00:53:23.148Z,26.40
2019-03-01T00:55:55.888Z,26.50
2019-03-01T00:58:29.113Z,26.50
2019-03-01T01:01:01.963Z,26.50
2019-03-01T01:03:35.079Z,26.50
2019-03-01T01:06:07.978Z,26.40
2019-03-01T01:08:41.199Z,26.30
2019-03-01T01:11:14.081Z,26.20
2019-03-01T01:13:50.134Z,26.30
2019-03-01T01:16:23.127Z,26.40
2019-03-01T01:18:56.275Z,26.40
2019-03-01T01:21:29.286Z,26.40
2019-03-01T01:24:04.077Z,26.50
2019-03-01T01:26:37.285Z,26.60
2019-03-01T01:29:11.633Z,26.70
2019-03-01T01:31:46.446Z,26.70
2019-03-01T01:34:19.330Z,26.80
2019-03-01T01:36:52.357Z,27.00
2019-03-01T01:39:25.437Z,27.10
2019-03-01T01:41:59.561Z,27.10
2019-03-01T01:44:32.513Z,27.90
2019-03-01T01:47:06.145Z,28.50
2019-03-01T01:49:40.243Z,28.70
2019-03-01T01:52:17.273Z,28.80
2019-03-01T01:54:50.385Z,28.80
2019-03-01T01:57:23.389Z,28.50
2019-03-01T01:59:56.498Z,28.10
2019-03-01T02:05:45.223Z,27.40
2019-03-01T02:14:55.612Z,28.00
2019-03-01T02:17:28.740Z,28.20
2019-03-01T02:20:02.486Z,28.10
2019-03-01T02:22:35.611Z,28.30
2019-03-01T02:25:10.253Z,27.90
2019-03-01T02:27:43.360Z,27.30
2019-03-01T02:30:25.510Z,26.90
2019-03-01T02:32:59.234Z,26.70
2019-03-01T02:35:32.443Z,26.50
2019-03-01T02:38:09.971Z,27.20
2019-03-01T02:40:43.171Z,26.90
2019-03-01T02:43:16.120Z,26.80
2019-03-01T02:45:50.543Z,26.50
2019-03-01T02:48:25.593Z,26.40
2019-03-01T02:51:03.103Z,26.00
2019-03-01T02:53:36.295Z,25.70
2019-03-01T02:56:23.653Z,25.40
2019-03-01T02:59:02.164Z,25.30
2019-03-01T03:01:39.573Z,25.10
2019-03-01T03:04:41.259Z,24.90
2019-03-01T03:07:19.651Z,24.80
2019-03-01T03:10:28.596Z,24.80
2019-03-01T03:13:34.549Z,24.80
2019-03-01T03:35:07.366Z,24.90
2019-03-01T03:41:17.204Z,24.90
2019-03-01T03:44:08.012Z,25.00
2019-03-01T03:50:51.885Z,25.10
2019-03-01T04:18:23.811Z,24.30
2019-03-01T04:21:23.737Z,24.10
2019-03-01T04:23:53.810Z,24.00
2019-03-01T04:29:33.529Z,23.90
2019-03-01T04:32:51.665Z,23.80
2019-03-01T04:48:32.449Z,23.30
2019-03-01T04:51:20.397Z,23.30
2019-03-01T04:53:52.638Z,23.20
2019-03-01T04:56:28.370Z,23.20
2019-03-01T04:59:04.526Z,23.20
2019-03-01T05:01:38.198Z,23.20
2019-03-01T05:04:12.219Z,23.30
2019-03-01T05:06:46.896Z,23.30
2019-03-01T05:09:20.114Z,23.40
2019-03-01T05:11:57.188Z,23.40
2019-03-01T05:14:31.046Z,23.50
2019-03-01T05:19:56.670Z,23.50
2019-03-01T05:22:29.311Z,23.50
2019-03-01T05:25:02.634Z,23.60
2019-03-01T05:27:35.802Z,23.50
2019-03-01T05:30:11.564Z,23.50
2019-03-01T05:32:47.660Z,23.50
2019-03-01T05:35:20.556Z,23.50
2019-03-01T05:37:53.655Z,23.50
2019-03-01T05:40:27.108Z,23.50
2019-03-01T05:42:59.868Z,23.40
2019-03-01T05:45:33.585Z,23.30
2019-03-01T05:48:13.829Z,23.30
2019-03-01T05:51:34.703Z,23.20
2019-03-01T05:53:30.958Z,23.20
2019-03-01T05:56:03.850Z,23.10
2019-03-01T05:58:39.255Z,23.10
2019-03-01T06:01:18.318Z,23.00
2019-03-01T06:10:52.904Z,22.80
2019-03-01T06:13:48.465Z,22.80
2019-03-01T06:16:35.880Z,22.60
2019-03-01T06:19:16.368Z,22.50
2019-03-01T06:22:03.434Z,22.40
2019-03-01T06:24:44.548Z,22.40
2019-03-01T06:27:44.950Z,22.30
2019-03-01T06:30:32.098Z,22.30
2019-03-01T06:33:16.608Z,22.20
2019-03-01T06:36:09.576Z,22.20
2019-03-01T06:39:03.614Z,22.10
2019-03-01T06:41:57.908Z,21.90
2019-03-01T06:45:03.142Z,21.90
2019-03-01T06:47:48.963Z,21.80
2019-03-01T06:50:23.414Z,21.70
2019-03-01T06:52:56.665Z,21.70
2019-03-01T06:55:43.256Z,21.70
2019-03-01T06:58:18.087Z,21.60
2019-03-01T07:00:52.054Z,21.60
2019-03-01T07:03:25.087Z,21.50
2019-03-01T07:06:03.290Z,21.50
2019-03-01T07:08:31.990Z,21.40
2019-03-01T07:11:07.483Z,21.40
2019-03-01T07:13:40.942Z,21.30
2019-03-01T07:16:14.049Z,21.20
2019-03-01T07:19:01.640Z,21.20
2019-03-01T07:21:37.543Z,21.20
2019-03-01T07:24:10.697Z,21.20
2019-03-01T07:26:43.668Z,21.10
2019-03-01T07:29:17.140Z,21.10
2019-03-01T07:31:51.156Z,21.00
2019-03-01T07:34:24.611Z,20.90
2019-03-01T07:36:57.599Z,20.90
2019-03-01T07:39:30.787Z,20.80
2019-03-01T07:42:03.916Z,20.80
2019-03-01T07:44:36.836Z,20.70
2019-03-01T07:47:09.812Z,20.70
2019-03-01T07:49:42.772Z,20.70
2019-03-01T07:52:16.925Z,20.60
2019-03-01T07:54:52.932Z,20.60
2019-03-01T08:00:24.240Z,20.60
2019-03-01T08:02:57.056Z,20.50
2019-03-01T08:05:35.459Z,20.50
2019-03-01T08:08:11.255Z,20.50
2019-03-01T08:10:44.269Z,20.40
2019-03-01T08:13:17.563Z,20.40
2019-03-01T08:15:51.472Z,20.30
2019-03-01T08:18:24.446Z,20.30
2019-03-01T08:20:58.470Z,20.20
2019-03-01T08:23:31.717Z,20.20
2019-03-01T08:26:05.003Z,20.20
2019-03-01T08:28:37.943Z,20.10
2019-03-01T08:31:11.988Z,20.00
2019-03-01T08:33:45.092Z,20.00
2019-03-01T08:36:25.390Z,20.00
2019-03-01T08:39:00.997Z,20.00
2019-03-01T08:41:34.032Z,20.00
2019-03-01T08:44:07.746Z,19.90
2019-03-01T08:46:41.979Z,19.90
2019-03-01T08:49:46.441Z,19.90
2019-03-01T08:51:58.445Z,19.90
2019-03-01T08:54:31.101Z,19.80
2019-03-01T08:57:04.280Z,19.80
2019-03-01T08:59:37.453Z,19.80
2019-03-01T09:02:11.836Z,19.80
2019-03-01T09:04:50.972Z,19.70
2019-03-01T09:07:19.938Z,19.70
2019-03-01T09:09:53.690Z,19.60
2019-03-01T09:12:28.683Z,19.60
2019-03-01T09:15:07.157Z,19.60
2019-03-01T09:17:42.870Z,19.50
2019-03-01T09:20:21.299Z,19.50
2019-03-01T09:23:19.730Z,19.50
2019-03-01T09:25:49.671Z,19.50
2019-03-01T09:28:23.110Z,19.40
2019-03-01T09:30:56.324Z,19.40
2019-03-01T09:33:29.463Z,19.30
2019-03-01T09:36:06.315Z,19.30
2019-03-01T09:38:42.609Z,19.30
2019-03-01T09:41:13.935Z,19.30
2019-03-01T09:43:49.979Z,19.30
2019-03-01T09:46:24.813Z,19.30
2019-03-01T09:48:58.929Z,19.20
2019-03-01T09:51:31.759Z,19.20
2019-03-01T09:54:06.543Z,19.20
2019-03-01T09:56:38.620Z,19.20
2019-03-01T09:59:11.697Z,19.20
2019-03-01T10:01:45.032Z,19.20
2019-03-01T10:04:17.973Z,19.20
2019-03-01T10:06:50.727Z,19.10
2019-03-01T10:09:23.779Z,19.10
2019-03-01T10:11:57.775Z,19.10
2019-03-01T10:14:30.886Z,19.00
2019-03-01T10:17:06.198Z,19.00
2019-03-01T10:19:39.529Z,19.00
2019-03-01T10:22:12.333Z,18.90
2019-03-01T10:24:45.447Z,18.90
2019-03-01T10:27:18.954Z,18.90
2019-03-01T10:29:52.305Z,18.90
2019-03-01T10:32:24.846Z,18.80
2019-03-01T10:35:01.419Z,18.80
2019-03-01T10:37:37.766Z,18.70
2019-03-01T10:40:13.223Z,18.70
2019-03-01T10:42:48.639Z,18.60
2019-03-01T10:45:30.341Z,18.60
2019-03-01T10:48:03.392Z,18.50
2019-03-01T10:50:36.295Z,18.50
2019-03-01T10:53:09.271Z,18.40
2019-03-01T10:55:42.072Z,18.40
2019-03-01T10:58:15.005Z,18.30
2019-03-01T11:00:47.786Z,18.30
2019-03-01T11:03:21.638Z,18.30
2019-03-01T11:05:54.430Z,18.30
2019-03-01T11:08:27.675Z,18.30
2019-03-01T11:11:00.283Z,18.30
2019-03-01T11:13:33.271Z,18.40
2019-03-01T11:16:06.644Z,18.40
2019-03-01T11:18:39.617Z,18.40
2019-03-01T11:21:13.504Z,18.30
2019-03-01T11:23:46.532Z,18.30
2019-03-01T11:26:19.597Z,18.30
2019-03-01T11:28:52.188Z,18.30
2019-03-01T11:31:24.943Z,18.30
2019-03-01T11:33:58.052Z,18.30
2019-03-01T11:36:30.967Z,18.30
2019-03-01T11:39:04.612Z,18.30
2019-03-01T11:41:37.524Z,18.30
2019-03-01T11:44:11.007Z,18.40
2019-03-01T11:46:43.712Z,18.40
2019-03-01T11:49:17.168Z,18.40
2019-03-01T11:51:51.012Z,18.40
2019-03-01T11:54:24.407Z,18.40
2019-03-01T11:56:57.809Z,18.40
2019-03-01T11:59:33.848Z,18.40
2019-03-01T12:02:06.729Z,18.30
2019-03-01T12:04:40.268Z,18.30
2019-03-01T12:07:13.034Z,18.30
2019-03-01T12:09:46.319Z,18.30
2019-03-01T12:12:19.141Z,18.20
2019-03-01T12:14:52.384Z,18.20
2019-03-01T12:17:25.197Z,18.20
2019-03-01T12:19:58.182Z,18.20
2019-03-01T12:22:31.145Z,18.20
2019-03-01T12:25:05.054Z,18.20
2019-03-01T12:27:37.728Z,18.20
2019-03-01T12:30:12.776Z,18.10
2019-03-01T12:32:45.756Z,18.10
2019-03-01T12:35:18.595Z,18.10
2019-03-01T12:37:51.545Z,18.10
2019-03-01T12:40:26.342Z,18.00
2019-03-01T12:42:59.471Z,18.00
2019-03-01T12:45:32.335Z,18.00
2019-03-01T12:48:05.417Z,18.00
2019-03-01T12:50:38.298Z,18.00
2019-03-01T12:53:11.289Z,18.00
2019-03-01T12:55:44.143Z,18.00
2019-03-01T12:58:19.688Z,17.90
2019-03-01T13:00:51.083Z,17.90
2019-03-01T13:03:24.115Z,17.90
2019-03-01T13:05:57.144Z,17.90
2019-03-01T13:08:30.101Z,17.80
2019-03-01T13:11:03.234Z,17.80
2019-03-01T13:13:38.329Z,17.80
2019-03-01T13:16:10.411Z,17.70
2019-03-01T13:18:43.507Z,17.70
2019-03-01T13:21:16.601Z,17.70
2019-03-01T13:23:49.608Z,17.70
2019-03-01T13:26:22.530Z,17.70
2019-03-01T13:28:55.191Z,17.60
2019-03-01T13:31:28.080Z,17.60
2019-03-01T13:34:02.137Z,17.50
2019-03-01T13:36:36.155Z,17.40
2019-03-01T13:39:10.470Z,17.30
2019-03-01T13:41:43.529Z,17.30
2019-03-01T13:44:16.612Z,17.20
2019-03-01T13:46:49.346Z,17.10
2019-03-01T13:49:23.039Z,17.10
2019-03-01T13:51:55.727Z,17.00
2019-03-01T13:54:29.792Z,17.00
2019-03-01T13:57:02.607Z,17.00
2019-03-01T13:59:37.529Z,16.90
2019-03-01T14:02:11.395Z,16.90
2019-03-01T14:04:44.137Z,16.90
2019-03-01T14:07:17.199Z,16.80
2019-03-01T14:09:50.103Z,16.80
2019-03-01T14:12:23.150Z,16.70
2019-03-01T14:14:56.066Z,16.70
2019-03-01T14:17:29.121Z,16.70
2019-03-01T14:20:02.051Z,16.70
2019-03-01T14:22:36.252Z,16.60
2019-03-01T14:25:10.234Z,16.60
2019-03-01T14:27:43.126Z,16.50
2019-03-01T14:30:17.582Z,16.50
2019-03-01T14:32:50.584Z,16.50
2019-03-01T14:35:25.820Z,16.50
2019-03-01T14:37:57.688Z,16.40
2019-03-01T14:40:30.565Z,16.40
2019-03-01T14:43:04.321Z,16.40
2019-03-01T14:45:38.217Z,16.30
2019-03-01T14:48:12.085Z,16.30
2019-03-01T14:50:44.858Z,16.30
2019-03-01T14:53:17.974Z,16.20
2019-03-01T14:55:58.874Z,16.20
2019-03-01T14:58:34.742Z,16.20
2019-03-01T15:01:09.853Z,16.10
2019-03-01T15:03:42.716Z,16.10
2019-03-01T15:06:18.704Z,16.10
2019-03-01T15:08:49.712Z,16.00
2019-03-01T15:11:23.152Z,16.00
2019-03-01T15:13:56.065Z,16.00
2019-03-01T15:16:29.156Z,16.00
2019-03-01T15:19:04.767Z,15.90
2019-03-01T15:21:37.556Z,15.90
2019-03-01T15:24:11.799Z,15.90
2019-03-01T15:26:46.182Z,15.80
2019-03-01T15:29:18.711Z,15.80
2019-03-01T15:31:54.797Z,15.80
2019-03-01T15:34:25.857Z,15.70
2019-03-01T15:36:59.338Z,15.70
2019-03-01T15:39:32.327Z,15.70
2019-03-01T15:42:05.111Z,15.70
2019-03-01T15:44:38.297Z,15.60
2019-03-01T15:47:11.052Z,15.60
2019-03-01T15:49:44.249Z,15.60
2019-03-01T15:52:18.430Z,15.60
2019-03-01T15:54:51.473Z,15.60
2019-03-01T15:57:24.450Z,15.60
2019-03-01T15:59:57.333Z,15.50
2019-03-01T16:02:29.986Z,15.50
2019-03-01T16:05:03.173Z,15.50
2019-03-01T16:07:35.979Z,15.50
2019-03-01T16:10:10.670Z,15.50
2019-03-01T16:12:44.029Z,15.40
2019-03-01T16:15:20.047Z,15.40
2019-03-01T16:17:53.278Z,15.40
2019-03-01T16:20:28.536Z,15.30
2019-03-01T16:23:00.692Z,15.30
2019-03-01T16:25:33.829Z,15.30
2019-03-01T16:28:06.824Z,15.20
2019-03-01T16:30:39.649Z,15.20
2019-03-01T16:33:12.415Z,15.20
2019-03-01T16:35:48.411Z,15.20
2019-03-01T16:38:20.250Z,15.20
2019-03-01T16:40:53.131Z,15.20
2019-03-01T16:43:28.573Z,15.20
2019-03-01T16:46:00.662Z,15.10
2019-03-01T16:48:33.655Z,15.10
2019-03-01T16:51:06.867Z,15.10
2019-03-01T16:53:45.728Z,15.10
2019-03-01T16:56:18.871Z,15.10
2019-03-01T16:58:51.855Z,15.10
2019-03-01T17:01:26.047Z,15.10
2019-03-01T17:03:59.172Z,15.10
2019-03-01T17:06:32.481Z,15.10
2019-03-01T17:09:06.137Z,15.10
2019-03-01T17:11:41.555Z,15.00
2019-03-01T17:14:13.360Z,15.00
2019-03-01T17:16:46.708Z,15.00
2019-03-01T17:19:20.495Z,15.00
2019-03-01T17:21:53.734Z,15.00
2019-03-01T17:24:26.370Z,15.00
2019-03-01T17:27:01.975Z,14.90
2019-03-01T17:29:35.842Z,14.90
2019-03-01T17:32:08.247Z,14.90
2019-03-01T17:34:40.759Z,14.90
2019-03-01T17:37:13.807Z,14.90
2019-03-01T17:39:46.727Z,14.80
2019-03-01T17:42:20.680Z,14.80
2019-03-01T17:44:53.964Z,14.80
2019-03-01T17:47:27.072Z,14.80
2019-03-01T17:50:00.283Z,14.90
2019-03-01T17:52:34.379Z,14.90
2019-03-01T17:55:08.790Z,14.90
2019-03-01T17:57:41.884Z,14.80
2019-03-01T18:00:21.792Z,14.90
2019-03-01T18:02:54.801Z,15.00
2019-03-01T18:05:27.761Z,15.00
2019-03-01T18:08:03.796Z,15.10
2019-03-01T18:10:35.854Z,15.10
2019-03-01T18:13:09.518Z,15.10
2019-03-01T18:15:53.730Z,15.10
2019-03-01T18:18:26.796Z,15.20
2019-03-01T18:20:59.641Z,15.10
2019-03-01T18:23:34.254Z,15.10
2019-03-01T18:26:07.337Z,15.10
2019-03-01T18:28:40.330Z,15.20
2019-03-01T18:31:13.050Z,15.20
2019-03-01T18:33:45.968Z,15.20
2019-03-01T18:36:18.811Z,15.20
2019-03-01T18:38:51.592Z,15.30
2019-03-01T18:41:27.465Z,15.30
2019-03-01T18:43:59.758Z,15.30
2019-03-01T18:46:32.963Z,15.40
2019-03-01T18:49:07.287Z,15.50
2019-03-01T18:51:43.316Z,15.50
2019-03-01T18:54:14.422Z,15.60
2019-03-01T18:56:48.854Z,15.60
2019-03-01T18:59:24.872Z,15.70
2019-03-01T19:01:57.185Z,15.80
2019-03-01T19:04:30.247Z,15.90
2019-03-01T19:07:06.079Z,16.10
2019-03-01T19:09:39.251Z,16.20
2019-03-01T19:12:15.496Z,16.40
2019-03-01T19:14:51.493Z,16.50
2019-03-01T19:17:41.742Z,16.70
2019-03-01T19:20:26.492Z,16.80
2019-03-01T19:22:59.312Z,17.00
2019-03-01T19:25:33.530Z,17.10
2019-03-01T19:28:23.659Z,17.30
2019-03-01T19:30:59.917Z,17.50
2019-03-01T19:33:34.681Z,17.70
2019-03-01T19:36:09.982Z,17.80
2019-03-01T19:38:46.389Z,17.90
2019-03-01T19:41:33.576Z,18.10
2019-03-01T19:44:05.573Z,18.30
2019-03-01T19:46:38.824Z,18.40
2019-03-01T19:49:17.205Z,18.60
2019-03-01T19:51:50.304Z,18.80
2019-03-01T19:54:23.236Z,19.00
2019-03-01T19:57:01.574Z,19.20
2019-03-01T19:59:33.601Z,19.40
2019-03-01T20:02:06.852Z,19.70
2019-03-01T20:04:39.855Z,19.90
2019-03-01T20:07:15.939Z,20.10
2019-03-01T20:09:46.961Z,20.40
2019-03-01T20:12:19.777Z,20.60
2019-03-01T20:14:52.736Z,20.90
2019-03-01T20:17:25.522Z,21.20
2019-03-01T20:22:55.218Z,21.90
2019-03-01T20:25:32.001Z,22.30
2019-03-01T20:28:11.554Z,22.60
2019-03-01T20:30:43.559Z,22.90
2019-03-01T20:33:23.442Z,23.20
2019-03-01T20:35:56.026Z,23.60
2019-03-01T20:38:29.046Z,23.90
2019-03-01T20:41:03.150Z,24.10
2019-03-01T20:44:03.073Z,24.30
2019-03-01T20:46:17.080Z,24.60
2019-03-01T20:48:50.169Z,24.90
2019-03-01T20:51:27.158Z,25.10
2019-03-01T20:53:57.674Z,25.30
2019-03-01T20:56:41.422Z,25.60
2019-03-01T20:59:16.440Z,25.80
2019-03-01T21:01:50.238Z,26.10
2019-03-01T21:04:23.296Z,26.40
2019-03-01T21:06:56.235Z,26.60
2019-03-01T21:09:37.763Z,26.80
2019-03-01T21:12:09.495Z,26.80
2019-03-01T21:14:43.051Z,27.00
2019-03-01T21:17:20.339Z,27.30
2019-03-01T21:19:51.508Z,27.60
2019-03-01T21:22:27.464Z,27.80
2019-03-01T21:25:03.117Z,28.10
2019-03-01T21:27:34.794Z,28.30
2019-03-01T21:30:13.111Z,28.50
2019-03-01T21:32:46.941Z,28.60
2019-03-01T21:35:21.470Z,28.70
2019-03-01T21:37:55.254Z,28.80
2019-03-01T21:40:31.426Z,29.00
2019-03-01T21:43:03.911Z,29.30
2019-03-01T21:45:47.699Z,29.60
2019-03-01T21:48:29.900Z,30.00
2019-03-01T21:51:03.817Z,30.30
2019-03-01T21:53:39.743Z,30.50
2019-03-01T21:56:10.933Z,30.80
2019-03-01T21:58:43.835Z,31.00
2019-03-01T22:01:22.250Z,31.00
2019-03-01T22:03:55.407Z,31.20
2019-03-01T22:06:29.187Z,31.40
2019-03-01T22:09:02.234Z,31.40
2019-03-01T22:11:35.467Z,31.60
2019-03-01T22:14:20.239Z,31.80
2019-03-01T22:16:53.237Z,31.90
2019-03-01T22:19:30.451Z,31.90
2019-03-01T22:22:01.850Z,32.10
2019-03-01T22:24:34.965Z,32.20
2019-03-01T22:27:09.275Z,32.40
2019-03-01T22:30:04.899Z,32.60
2019-03-01T22:32:31.351Z,32.80
2019-03-01T22:35:08.576Z,32.90
2019-03-01T22:37:38.641Z,33.00
2019-03-01T22:40:13.398Z,33.10
2019-03-01T22:42:49.563Z,33.20
2019-03-01T22:45:26.388Z,33.40
2019-03-01T22:47:59.402Z,33.60
2019-03-01T22:50:34.067Z,33.60
2019-03-01T22:53:07.265Z,33.50
2019-03-01T22:55:59.719Z,33.40
2019-03-01T22:58:32.797Z,33.50
2019-03-01T23:01:07.571Z,33.60
2019-03-01T23:03:40.487Z,33.70
2019-03-01T23:06:14.655Z,33.80
2019-03-01T23:08:47.150Z,33.90
2019-03-01T23:11:19.720Z,34.00
2019-03-01T23:13:55.808Z,34.10
2019-03-01T23:16:27.358Z,34.40
2019-03-01T23:19:00.337Z,34.40
2019-03-01T23:21:35.912Z,34.40
2019-03-01T23:24:07.138Z,34.40
2019-03-01T23:26:39.828Z,34.40
2019-03-01T23:29:15.691Z,34.30
2019-03-01T23:31:47.119Z,34.10
2019-03-01T23:34:19.803Z,34.10
2019-03-01T23:36:52.867Z,34.10
2019-03-01T23:39:25.544Z,34.20
2019-03-01T23:41:58.271Z,34.20
2019-03-01T23:44:31.443Z,34.20
2019-03-01T23:47:04.245Z,34.00
2019-03-01T23:49:37.884Z,34.00
2019-03-01T23:52:10.604Z,34.10
2019-03-01T23:54:44.238Z,34.10
2019-03-01T23:57:17.317Z,34.10
2019-03-01T23:59:49.744Z,34.00
